sensor_id;sensor_type;location;lat;lon;timestamp;temperature;humidity
82001;SHT30;71522;50.870;3.524;2023-07-16T00:00:33;17.20;69.26
82001;SHT30;71522;50.870;3.524;2023-07-16T00:03:01;17.31;69.19
82001;SHT30;71522;50.870;3.524;2023-07-16T00:05:27;17.35;68.84
82001;SHT30;71522;50.870;3.524;2023-07-16T00:07:53;17.38;69.05
82001;SHT30;71522;50.870;3.524;2023-07-16T00:10:23;17.44;68.65
82001;SHT30;71522;50.870;3.524;2023-07-16T00:12:48;17.42;68.57
82001;SHT30;71522;50.870;3.524;2023-07-16T00:15:15;17.38;68.75
82001;SHT30;71522;50.870;3.524;2023-07-16T00:17:41;17.32;68.86
82001;SHT30;71522;50.870;3.524;2023-07-16T00:20:07;17.23;69.64
82001;SHT30;71522;50.870;3.524;2023-07-16T00:22:34;17.13;69.30
82001;SHT30;71522;50.870;3.524;2023-07-16T00:24:59;17.03;69.44
82001;SHT30;71522;50.870;3.524;2023-07-16T00:27:25;17.00;69.37
82001;SHT30;71522;50.870;3.524;2023-07-16T00:29:51;16.91;69.53
82001;SHT30;71522;50.870;3.524;2023-07-16T00:32:16;16.83;69.80
82001;SHT30;71522;50.870;3.524;2023-07-16T00:34:42;16.77;70.04
82001;SHT30;71522;50.870;3.524;2023-07-16T00:37:08;16.66;70.30
82001;SHT30;71522;50.870;3.524;2023-07-16T00:39:34;16.62;70.43
82001;SHT30;71522;50.870;3.524;2023-07-16T00:41:59;16.63;70.03
82001;SHT30;71522;50.870;3.524;2023-07-16T00:44:25;16.66;69.99
82001;SHT30;71522;50.870;3.524;2023-07-16T00:46:54;16.75;69.50
82001;SHT30;71522;50.870;3.524;2023-07-16T00:49:23;16.83;68.86
82001;SHT30;71522;50.870;3.524;2023-07-16T00:51:52;16.77;68.94
82001;SHT30;71522;50.870;3.524;2023-07-16T00:54:19;16.70;68.18
82001;SHT30;71522;50.870;3.524;2023-07-16T00:56:44;16.72;68.73
82001;SHT30;71522;50.870;3.524;2023-07-16T00:59:10;16.73;67.98
82001;SHT30;71522;50.870;3.524;2023-07-16T01:01:37;16.72;68.11
82001;SHT30;71522;50.870;3.524;2023-07-16T01:04:14;16.69;68.43
82001;SHT30;71522;50.870;3.524;2023-07-16T01:07:04;16.62;68.23
82001;SHT30;71522;50.870;3.524;2023-07-16T01:09:32;16.59;67.70
82001;SHT30;71522;50.870;3.524;2023-07-16T01:12:00;16.55;67.74
82001;SHT30;71522;50.870;3.524;2023-07-16T01:14:28;16.41;68.57
82001;SHT30;71522;50.870;3.524;2023-07-16T01:17:13;16.33;68.41
82001;SHT30;71522;50.870;3.524;2023-07-16T01:19:39;16.29;68.68
82001;SHT30;71522;50.870;3.524;2023-07-16T01:30:51;16.47;67.53
82001;SHT30;71522;50.870;3.524;2023-07-16T01:33:20;16.52;66.96
82001;SHT30;71522;50.870;3.524;2023-07-16T01:35:47;16.51;66.97
82001;SHT30;71522;50.870;3.524;2023-07-16T01:38:24;16.53;66.80
82001;SHT30;71522;50.870;3.524;2023-07-16T01:40:50;16.52;66.93
82001;SHT30;71522;50.870;3.524;2023-07-16T01:43:17;16.51;66.48
82001;SHT30;71522;50.870;3.524;2023-07-16T01:45:43;16.52;66.15
82001;SHT30;71522;50.870;3.524;2023-07-16T01:48:31;16.49;66.17
82001;SHT30;71522;50.870;3.524;2023-07-16T01:50:58;16.47;66.67
82001;SHT30;71522;50.870;3.524;2023-07-16T01:53:24;16.39;66.43
82001;SHT30;71522;50.870;3.524;2023-07-16T01:55:50;16.32;66.49
82001;SHT30;71522;50.870;3.524;2023-07-16T01:58:15;16.33;66.43
82001;SHT30;71522;50.870;3.524;2023-07-16T02:00:47;16.29;66.26
82001;SHT30;71522;50.870;3.524;2023-07-16T02:03:14;16.36;66.14
82001;SHT30;71522;50.870;3.524;2023-07-16T02:05:39;16.35;66.10
82001;SHT30;71522;50.870;3.524;2023-07-16T02:08:05;16.35;66.05
82001;SHT30;71522;50.870;3.524;2023-07-16T02:10:31;16.36;65.85
82001;SHT30;71522;50.870;3.524;2023-07-16T02:12:57;16.41;65.76
82001;SHT30;71522;50.870;3.524;2023-07-16T02:15:23;16.39;65.76
82001;SHT30;71522;50.870;3.524;2023-07-16T02:17:48;16.38;65.07
82001;SHT30;71522;50.870;3.524;2023-07-16T02:20:14;16.44;65.19
82001;SHT30;71522;50.870;3.524;2023-07-16T02:22:40;16.39;65.16
82001;SHT30;71522;50.870;3.524;2023-07-16T02:25:06;16.36;65.31
82001;SHT30;71522;50.870;3.524;2023-07-16T02:27:32;16.26;65.09
82001;SHT30;71522;50.870;3.524;2023-07-16T02:29:58;16.25;65.08
82001;SHT30;71522;50.870;3.524;2023-07-16T02:32:23;16.29;64.78
82001;SHT30;71522;50.870;3.524;2023-07-16T02:34:53;16.36;64.84
82001;SHT30;71522;50.870;3.524;2023-07-16T02:37:19;16.31;64.75
82001;SHT30;71522;50.870;3.524;2023-07-16T02:39:46;16.31;65.03
82001;SHT30;71522;50.870;3.524;2023-07-16T02:42:16;16.29;64.94
82001;SHT30;71522;50.870;3.524;2023-07-16T02:44:41;16.31;65.22
82001;SHT30;71522;50.870;3.524;2023-07-16T02:47:10;16.17;65.89
82001;SHT30;71522;50.870;3.524;2023-07-16T02:49:37;16.14;66.02
82001;SHT30;71522;50.870;3.524;2023-07-16T02:52:03;16.14;66.19
82001;SHT30;71522;50.870;3.524;2023-07-16T02:54:28;16.18;66.03
82001;SHT30;71522;50.870;3.524;2023-07-16T02:56:54;16.21;65.74
82001;SHT30;71522;50.870;3.524;2023-07-16T02:59:20;16.24;65.93
82001;SHT30;71522;50.870;3.524;2023-07-16T03:01:46;16.33;65.77
82001;SHT30;71522;50.870;3.524;2023-07-16T03:04:11;16.47;64.87
82001;SHT30;71522;50.870;3.524;2023-07-16T03:06:37;16.58;64.87
82001;SHT30;71522;50.870;3.524;2023-07-16T03:09:03;16.69;64.38
82001;SHT30;71522;50.870;3.524;2023-07-16T03:11:29;16.75;64.10
82001;SHT30;71522;50.870;3.524;2023-07-16T03:13:54;16.69;64.78
82001;SHT30;71522;50.870;3.524;2023-07-16T03:16:20;16.68;64.67
82001;SHT30;71522;50.870;3.524;2023-07-16T03:18:46;16.62;64.92
82001;SHT30;71522;50.870;3.524;2023-07-16T03:21:12;16.62;65.14
82001;SHT30;71522;50.870;3.524;2023-07-16T03:23:38;16.55;65.51
82001;SHT30;71522;50.870;3.524;2023-07-16T03:26:03;16.58;65.32
82001;SHT30;71522;50.870;3.524;2023-07-16T03:28:29;16.60;65.48
82001;SHT30;71522;50.870;3.524;2023-07-16T03:30:55;16.56;65.66
82001;SHT30;71522;50.870;3.524;2023-07-16T03:33:20;16.56;65.99
82001;SHT30;71522;50.870;3.524;2023-07-16T03:35:48;16.56;65.40
82001;SHT30;71522;50.870;3.524;2023-07-16T03:38:22;16.66;65.01
82001;SHT30;71522;50.870;3.524;2023-07-16T03:40:49;16.70;64.87
82001;SHT30;71522;50.870;3.524;2023-07-16T03:43:16;16.73;65.77
82001;SHT30;71522;50.870;3.524;2023-07-16T03:45:43;16.69;65.44
82001;SHT30;71522;50.870;3.524;2023-07-16T03:48:09;16.68;65.49
82001;SHT30;71522;50.870;3.524;2023-07-16T03:50:35;16.69;65.57
82001;SHT30;71522;50.870;3.524;2023-07-16T03:53:01;16.63;65.88
82001;SHT30;71522;50.870;3.524;2023-07-16T03:55:28;16.62;65.80
82001;SHT30;71522;50.870;3.524;2023-07-16T03:57:54;16.62;65.34
82001;SHT30;71522;50.870;3.524;2023-07-16T04:00:20;16.68;65.64
82001;SHT30;71522;50.870;3.524;2023-07-16T04:02:46;16.70;65.53
82001;SHT30;71522;50.870;3.524;2023-07-16T04:05:11;16.77;65.78
82001;SHT30;71522;50.870;3.524;2023-07-16T04:07:44;16.77;65.79
82001;SHT30;71522;50.870;3.524;2023-07-16T04:10:20;16.77;66.01
82001;SHT30;71522;50.870;3.524;2023-07-16T04:12:45;16.72;65.84
82001;SHT30;71522;50.870;3.524;2023-07-16T04:15:11;16.75;65.73
82001;SHT30;71522;50.870;3.524;2023-07-16T04:17:37;16.83;65.79
82001;SHT30;71522;50.870;3.524;2023-07-16T04:20:05;16.87;66.00
82001;SHT30;71522;50.870;3.524;2023-07-16T04:22:33;16.84;65.78
82001;SHT30;71522;50.870;3.524;2023-07-16T04:25:00;16.77;66.61
82001;SHT30;71522;50.870;3.524;2023-07-16T04:27:30;16.73;66.35
82001;SHT30;71522;50.870;3.524;2023-07-16T04:30:06;16.70;66.34
82001;SHT30;71522;50.870;3.524;2023-07-16T04:32:47;16.69;66.59
82001;SHT30;71522;50.870;3.524;2023-07-16T04:35:14;16.63;66.79
82001;SHT30;71522;50.870;3.524;2023-07-16T04:37:40;16.60;66.76
82001;SHT30;71522;50.870;3.524;2023-07-16T04:40:06;16.62;66.80
82001;SHT30;71522;50.870;3.524;2023-07-16T04:42:32;16.68;66.96
82001;SHT30;71522;50.870;3.524;2023-07-16T04:44:58;16.70;67.39
82001;SHT30;71522;50.870;3.524;2023-07-16T04:47:23;16.75;67.34
82001;SHT30;71522;50.870;3.524;2023-07-16T04:49:51;16.66;67.47
82001;SHT30;71522;50.870;3.524;2023-07-16T04:52:21;16.66;67.71
82001;SHT30;71522;50.870;3.524;2023-07-16T04:54:46;16.70;67.56
82001;SHT30;71522;50.870;3.524;2023-07-16T04:57:12;16.76;67.70
82001;SHT30;71522;50.870;3.524;2023-07-16T04:59:38;16.73;68.22
82001;SHT30;71522;50.870;3.524;2023-07-16T05:02:05;16.81;67.51
82001;SHT30;71522;50.870;3.524;2023-07-16T05:04:32;16.87;67.77
82001;SHT30;71522;50.870;3.524;2023-07-16T05:06:58;16.90;67.13
82001;SHT30;71522;50.870;3.524;2023-07-16T05:09:23;16.96;67.10
82001;SHT30;71522;50.870;3.524;2023-07-16T05:14:47;17.08;66.99
82001;SHT30;71522;50.870;3.524;2023-07-16T05:17:14;17.08;67.20
82001;SHT30;71522;50.870;3.524;2023-07-16T05:19:40;17.16;66.94
82001;SHT30;71522;50.870;3.524;2023-07-16T05:22:06;17.18;66.23
82001;SHT30;71522;50.870;3.524;2023-07-16T05:24:32;17.21;66.89
82001;SHT30;71522;50.870;3.524;2023-07-16T05:26:58;17.27;66.58
82001;SHT30;71522;50.870;3.524;2023-07-16T05:29:24;17.35;66.86
82001;SHT30;71522;50.870;3.524;2023-07-16T05:31:49;17.28;66.56
82001;SHT30;71522;50.870;3.524;2023-07-16T05:34:15;17.34;66.47
82001;SHT30;71522;50.870;3.524;2023-07-16T05:36:42;17.35;66.60
82001;SHT30;71522;50.870;3.524;2023-07-16T05:39:09;17.44;66.34
82001;SHT30;71522;50.870;3.524;2023-07-16T05:41:39;17.49;66.53
82001;SHT30;71522;50.870;3.524;2023-07-16T05:44:05;17.54;65.44
82001;SHT30;71522;50.870;3.524;2023-07-16T05:46:31;17.55;65.69
82001;SHT30;71522;50.870;3.524;2023-07-16T05:48:56;17.58;66.32
82001;SHT30;71522;50.870;3.524;2023-07-16T05:51:22;17.51;66.31
82001;SHT30;71522;50.870;3.524;2023-07-16T05:54:06;17.56;66.04
82001;SHT30;71522;50.870;3.524;2023-07-16T05:56:32;17.64;67.36
82001;SHT30;71522;50.870;3.524;2023-07-16T05:58:58;17.56;66.70
82001;SHT30;71522;50.870;3.524;2023-07-16T06:01:24;17.62;67.83
82001;SHT30;71522;50.870;3.524;2023-07-16T06:03:50;17.64;67.39
82001;SHT30;71522;50.870;3.524;2023-07-16T06:06:15;17.64;66.32
82001;SHT30;71522;50.870;3.524;2023-07-16T06:08:41;17.68;67.21
82001;SHT30;71522;50.870;3.524;2023-07-16T06:11:07;17.75;67.45
82001;SHT30;71522;50.870;3.524;2023-07-16T06:13:41;17.85;66.37
82001;SHT30;71522;50.870;3.524;2023-07-16T06:16:06;17.81;67.21
82001;SHT30;71522;50.870;3.524;2023-07-16T06:18:32;17.83;66.88
82001;SHT30;71522;50.870;3.524;2023-07-16T06:21:03;17.89;67.23
82001;SHT30;71522;50.870;3.524;2023-07-16T06:23:33;17.87;67.07
82001;SHT30;71522;50.870;3.524;2023-07-16T06:25:59;17.96;67.58
82001;SHT30;71522;50.870;3.524;2023-07-16T06:28:25;18.07;66.89
82001;SHT30;71522;50.870;3.524;2023-07-16T06:30:54;18.26;68.23
82001;SHT30;71522;50.870;3.524;2023-07-16T06:33:19;18.53;66.97
82001;SHT30;71522;50.870;3.524;2023-07-16T06:35:46;18.74;66.34
82001;SHT30;71522;50.870;3.524;2023-07-16T06:38:15;18.91;66.34
82001;SHT30;71522;50.870;3.524;2023-07-16T06:40:49;18.96;64.88
82001;SHT30;71522;50.870;3.524;2023-07-16T06:43:16;18.79;65.34
82001;SHT30;71522;50.870;3.524;2023-07-16T06:45:43;18.72;65.08
82001;SHT30;71522;50.870;3.524;2023-07-16T06:48:08;18.74;65.86
82001;SHT30;71522;50.870;3.524;2023-07-16T06:50:34;18.57;66.21
82001;SHT30;71522;50.870;3.524;2023-07-16T06:53:00;18.45;66.67
82001;SHT30;71522;50.870;3.524;2023-07-16T06:55:28;18.34;66.43
82001;SHT30;71522;50.870;3.524;2023-07-16T06:57:57;18.30;66.40
82001;SHT30;71522;50.870;3.524;2023-07-16T07:00:22;18.29;66.92
82001;SHT30;71522;50.870;3.524;2023-07-16T07:02:48;18.43;67.23
82001;SHT30;71522;50.870;3.524;2023-07-16T07:05:14;18.62;67.40
82001;SHT30;71522;50.870;3.524;2023-07-16T07:07:42;18.94;66.09
82001;SHT30;71522;50.870;3.524;2023-07-16T07:10:11;19.24;66.52
82001;SHT30;71522;50.870;3.524;2023-07-16T07:12:37;19.33;64.75
82001;SHT30;71522;50.870;3.524;2023-07-16T07:15:05;19.47;65.27
82001;SHT30;71522;50.870;3.524;2023-07-16T07:17:41;19.49;63.63
82001;SHT30;71522;50.870;3.524;2023-07-16T07:20:08;19.56;64.33
82001;SHT30;71522;50.870;3.524;2023-07-16T07:22:34;19.53;63.58
82001;SHT30;71522;50.870;3.524;2023-07-16T07:25:00;19.47;65.05
82001;SHT30;71522;50.870;3.524;2023-07-16T07:27:25;19.37;65.48
82001;SHT30;71522;50.870;3.524;2023-07-16T07:29:51;19.39;66.10
82001;SHT30;71522;50.870;3.524;2023-07-16T07:32:21;19.23;65.49
82001;SHT30;71522;50.870;3.524;2023-07-16T07:34:49;19.27;66.16
82001;SHT30;71522;50.870;3.524;2023-07-16T07:37:15;19.39;66.44
82001;SHT30;71522;50.870;3.524;2023-07-16T07:39:41;19.53;65.03
82001;SHT30;71522;50.870;3.524;2023-07-16T07:42:06;19.57;64.87
82001;SHT30;71522;50.870;3.524;2023-07-16T07:44:33;19.75;63.73
82001;SHT30;71522;50.870;3.524;2023-07-16T07:46:58;20.01;63.82
82001;SHT30;71522;50.870;3.524;2023-07-16T07:49:24;20.38;65.33
82001;SHT30;71522;50.870;3.524;2023-07-16T07:51:53;20.65;62.61
82001;SHT30;71522;50.870;3.524;2023-07-16T07:54:21;20.56;63.60
82001;SHT30;71522;50.870;3.524;2023-07-16T07:56:47;20.62;63.27
82001;SHT30;71522;50.870;3.524;2023-07-16T07:59:13;20.73;62.35
82001;SHT30;71522;50.870;3.524;2023-07-16T08:01:39;21.00;62.43
82001;SHT30;71522;50.870;3.524;2023-07-16T08:04:05;21.11;62.08
82001;SHT30;71522;50.870;3.524;2023-07-16T08:06:38;21.17;61.23
82001;SHT30;71522;50.870;3.524;2023-07-16T08:09:08;21.24;60.82
82001;SHT30;71522;50.870;3.524;2023-07-16T08:11:34;21.23;62.04
82001;SHT30;71522;50.870;3.524;2023-07-16T08:14:00;21.37;62.40
82001;SHT30;71522;50.870;3.524;2023-07-16T08:16:28;21.58;62.04
82001;SHT30;71522;50.870;3.524;2023-07-16T08:18:54;21.88;59.89
82001;SHT30;71522;50.870;3.524;2023-07-16T08:21:19;21.92;60.64
82001;SHT30;71522;50.870;3.524;2023-07-16T08:23:49;21.86;60.23
82001;SHT30;71522;50.870;3.524;2023-07-16T08:26:24;21.92;59.99
82001;SHT30;71522;50.870;3.524;2023-07-16T08:28:50;21.96;61.13
82001;SHT30;71522;50.870;3.524;2023-07-16T08:31:15;22.03;58.95
82001;SHT30;71522;50.870;3.524;2023-07-16T08:33:41;22.14;59.03
82001;SHT30;71522;50.870;3.524;2023-07-16T08:36:16;22.16;59.21
82001;SHT30;71522;50.870;3.524;2023-07-16T08:38:44;22.07;59.04
82001;SHT30;71522;50.870;3.524;2023-07-16T08:41:10;21.96;59.24
82001;SHT30;71522;50.870;3.524;2023-07-16T08:43:35;21.71;59.52
82001;SHT30;71522;50.870;3.524;2023-07-16T08:46:02;21.61;60.40
82001;SHT30;71522;50.870;3.524;2023-07-16T08:48:28;21.49;61.29
82001;SHT30;71522;50.870;3.524;2023-07-16T08:50:55;21.52;60.72
82001;SHT30;71522;50.870;3.524;2023-07-16T08:53:32;21.67;60.91
82001;SHT30;71522;50.870;3.524;2023-07-16T08:55:58;21.78;59.52
82001;SHT30;71522;50.870;3.524;2023-07-16T08:58:24;21.66;60.33
82001;SHT30;71522;50.870;3.524;2023-07-16T09:00:51;21.49;60.03
82001;SHT30;71522;50.870;3.524;2023-07-16T09:03:18;21.27;61.18
82001;SHT30;71522;50.870;3.524;2023-07-16T09:05:47;20.87;60.99
82001;SHT30;71522;50.870;3.524;2023-07-16T09:08:14;20.29;62.39
82001;SHT30;71522;50.870;3.524;2023-07-16T09:10:41;20.05;63.56
82001;SHT30;71522;50.870;3.524;2023-07-16T09:13:09;19.87;63.34
82001;SHT30;71522;50.870;3.524;2023-07-16T09:15:35;19.61;63.86
82001;SHT30;71522;50.870;3.524;2023-07-16T09:18:01;18.51;70.53
82001;SHT30;71522;50.870;3.524;2023-07-16T09:20:34;17.58;75.70
82001;SHT30;71522;50.870;3.524;2023-07-16T09:23:04;17.34;77.21
82001;SHT30;71522;50.870;3.524;2023-07-16T09:25:30;16.97;75.43
82001;SHT30;71522;50.870;3.524;2023-07-16T09:28:03;17.08;76.44
82001;SHT30;71522;50.870;3.524;2023-07-16T09:30:32;17.31;76.11
82001;SHT30;71522;50.870;3.524;2023-07-16T09:33:19;17.64;76.47
82001;SHT30;71522;50.870;3.524;2023-07-16T09:35:59;17.92;75.44
82001;SHT30;71522;50.870;3.524;2023-07-16T09:38:27;18.02;75.12
82001;SHT30;71522;50.870;3.524;2023-07-16T09:40:59;18.27;74.26
82001;SHT30;71522;50.870;3.524;2023-07-16T09:43:26;18.36;72.18
82001;SHT30;71522;50.870;3.524;2023-07-16T09:46:04;18.38;71.49
82001;SHT30;71522;50.870;3.524;2023-07-16T09:48:32;18.41;72.64
82001;SHT30;71522;50.870;3.524;2023-07-16T09:50:58;18.43;71.00
82001;SHT30;71522;50.870;3.524;2023-07-16T09:53:25;18.58;72.38
82001;SHT30;71522;50.870;3.524;2023-07-16T09:56:04;18.54;72.84
82001;SHT30;71522;50.870;3.524;2023-07-16T09:58:33;18.54;74.76
82001;SHT30;71522;50.870;3.524;2023-07-16T10:01:00;18.64;75.00
82001;SHT30;71522;50.870;3.524;2023-07-16T10:03:26;18.78;74.63
82001;SHT30;71522;50.870;3.524;2023-07-16T10:06:05;19.13;74.44
82001;SHT30;71522;50.870;3.524;2023-07-16T10:08:49;19.36;75.21
82001;SHT30;71522;50.870;3.524;2023-07-16T10:11:18;19.71;73.52
82001;SHT30;71522;50.870;3.524;2023-07-16T10:13:50;20.01;71.42
82001;SHT30;71522;50.870;3.524;2023-07-16T10:16:22;20.29;72.41
82001;SHT30;71522;50.870;3.524;2023-07-16T10:18:51;20.42;69.55
82001;SHT30;71522;50.870;3.524;2023-07-16T10:21:27;20.60;70.92
82001;SHT30;71522;50.870;3.524;2023-07-16T10:23:59;20.81;68.75
82001;SHT30;71522;50.870;3.524;2023-07-16T10:26:29;20.53;68.05
82001;SHT30;71522;50.870;3.524;2023-07-16T10:29:16;20.69;66.82
82001;SHT30;71522;50.870;3.524;2023-07-16T10:31:42;20.86;67.32
82001;SHT30;71522;50.870;3.524;2023-07-16T10:34:08;21.03;64.45
82001;SHT30;71522;50.870;3.524;2023-07-16T10:36:38;21.41;64.30
82001;SHT30;71522;50.870;3.524;2023-07-16T10:39:04;21.46;63.57
82001;SHT30;71522;50.870;3.524;2023-07-16T10:41:31;21.81;61.13
82001;SHT30;71522;50.870;3.524;2023-07-16T10:44:00;21.97;60.59
82001;SHT30;71522;50.870;3.524;2023-07-16T10:46:32;21.78;60.54
82001;SHT30;71522;50.870;3.524;2023-07-16T10:49:00;21.86;62.17
82001;SHT30;71522;50.870;3.524;2023-07-16T10:51:27;21.93;59.03
82001;SHT30;71522;50.870;3.524;2023-07-16T10:54:07;22.37;60.79
82001;SHT30;71522;50.870;3.524;2023-07-16T10:56:54;23.18;59.75
82001;SHT30;71522;50.870;3.524;2023-07-16T10:59:20;23.82;58.95
82001;SHT30;71522;50.870;3.524;2023-07-16T11:01:46;24.28;55.48
82001;SHT30;71522;50.870;3.524;2023-07-16T11:04:12;24.26;56.18
82001;SHT30;71522;50.870;3.524;2023-07-16T11:06:38;23.88;54.61
82001;SHT30;71522;50.870;3.524;2023-07-16T11:09:10;23.58;56.35
82001;SHT30;71522;50.870;3.524;2023-07-16T11:11:54;23.50;57.97
82001;SHT30;71522;50.870;3.524;2023-07-16T11:14:21;23.71;55.68
82001;SHT30;71522;50.870;3.524;2023-07-16T11:16:47;24.07;55.72
82001;SHT30;71522;50.870;3.524;2023-07-16T11:19:14;24.39;56.54
82001;SHT30;71522;50.870;3.524;2023-07-16T11:21:40;24.22;54.69
82001;SHT30;71522;50.870;3.524;2023-07-16T11:24:10;24.26;53.43
82001;SHT30;71522;50.870;3.524;2023-07-16T11:26:36;24.22;54.96
82001;SHT30;71522;50.870;3.524;2023-07-16T11:29:15;23.61;53.60
82001;SHT30;71522;50.870;3.524;2023-07-16T11:31:44;23.63;53.84
82001;SHT30;71522;50.870;3.524;2023-07-16T11:34:15;24.08;54.52
82001;SHT30;71522;50.870;3.524;2023-07-16T11:36:42;24.01;53.59
82001;SHT30;71522;50.870;3.524;2023-07-16T11:39:11;22.92;55.55
82001;SHT30;71522;50.870;3.524;2023-07-16T11:41:37;22.82;56.29
82001;SHT30;71522;50.870;3.524;2023-07-16T11:44:13;22.55;57.22
82001;SHT30;71522;50.870;3.524;2023-07-16T11:46:39;23.18;57.44
82001;SHT30;71522;50.870;3.524;2023-07-16T11:49:05;23.95;53.82
82001;SHT30;71522;50.870;3.524;2023-07-16T11:51:32;24.59;53.83
82001;SHT30;71522;50.870;3.524;2023-07-16T11:54:09;24.88;50.57
82001;SHT30;71522;50.870;3.524;2023-07-16T11:56:46;24.48;50.25
82001;SHT30;71522;50.870;3.524;2023-07-16T11:59:16;24.21;50.98
82001;SHT30;71522;50.870;3.524;2023-07-16T12:01:47;24.09;52.37
82001;SHT30;71522;50.870;3.524;2023-07-16T12:04:21;24.24;50.68
82001;SHT30;71522;50.870;3.524;2023-07-16T12:06:47;24.56;53.47
82001;SHT30;71522;50.870;3.524;2023-07-16T12:09:13;25.20;51.31
82001;SHT30;71522;50.870;3.524;2023-07-16T12:11:39;25.72;50.92
82001;SHT30;71522;50.870;3.524;2023-07-16T12:14:05;25.97;47.56
82001;SHT30;71522;50.870;3.524;2023-07-16T12:16:31;25.86;48.65
82001;SHT30;71522;50.870;3.524;2023-07-16T12:18:57;25.51;49.34
82001;SHT30;71522;50.870;3.524;2023-07-16T12:21:23;25.00;49.98
82001;SHT30;71522;50.870;3.524;2023-07-16T12:23:49;24.56;51.06
82001;SHT30;71522;50.870;3.524;2023-07-16T12:26:19;24.36;51.26
82001;SHT30;71522;50.870;3.524;2023-07-16T12:28:45;24.46;51.06
82001;SHT30;71522;50.870;3.524;2023-07-16T12:31:13;24.67;53.47
82001;SHT30;71522;50.870;3.524;2023-07-16T12:33:55;24.59;49.61
82001;SHT30;71522;50.870;3.524;2023-07-16T12:36:22;24.35;50.55
82001;SHT30;71522;50.870;3.524;2023-07-16T12:38:55;24.16;51.24
82001;SHT30;71522;50.870;3.524;2023-07-16T12:41:28;23.82;51.58
82001;SHT30;71522;50.870;3.524;2023-07-16T12:44:02;23.81;52.37
82001;SHT30;71522;50.870;3.524;2023-07-16T12:46:36;24.28;53.08
82001;SHT30;71522;50.870;3.524;2023-07-16T12:49:02;24.66;52.06
82001;SHT30;71522;50.870;3.524;2023-07-16T12:51:56;25.45;50.75
82001;SHT30;71522;50.870;3.524;2023-07-16T12:54:29;25.71;49.60
82001;SHT30;71522;50.870;3.524;2023-07-16T12:57:04;25.14;50.12
82001;SHT30;71522;50.870;3.524;2023-07-16T12:59:37;25.02;51.53
82001;SHT30;71522;50.870;3.524;2023-07-16T13:02:03;24.62;50.93
82001;SHT30;71522;50.870;3.524;2023-07-16T13:04:33;24.05;50.84
82001;SHT30;71522;50.870;3.524;2023-07-16T13:07:00;23.78;52.61
82001;SHT30;71522;50.870;3.524;2023-07-16T13:09:35;23.85;53.13
82001;SHT30;71522;50.870;3.524;2023-07-16T13:12:05;24.00;51.17
82001;SHT30;71522;50.870;3.524;2023-07-16T13:14:36;24.16;51.11
82001;SHT30;71522;50.870;3.524;2023-07-16T13:17:28;24.42;52.84
82001;SHT30;71522;50.870;3.524;2023-07-16T13:19:59;24.63;51.04
82001;SHT30;71522;50.870;3.524;2023-07-16T13:22:25;24.88;51.01
82001;SHT30;71522;50.870;3.524;2023-07-16T13:24:57;24.98;52.24
82001;SHT30;71522;50.870;3.524;2023-07-16T13:27:24;24.93;51.41
82001;SHT30;71522;50.870;3.524;2023-07-16T13:29:53;24.59;50.96
82001;SHT30;71522;50.870;3.524;2023-07-16T13:32:19;24.40;51.64
82001;SHT30;71522;50.870;3.524;2023-07-16T13:34:48;24.30;50.64
82001;SHT30;71522;50.870;3.524;2023-07-16T13:37:32;24.29;52.02
82001;SHT30;71522;50.870;3.524;2023-07-16T13:40:03;24.77;51.59
82001;SHT30;71522;50.870;3.524;2023-07-16T13:42:36;25.38;50.87
82001;SHT30;71522;50.870;3.524;2023-07-16T13:45:05;25.78;50.83
82001;SHT30;71522;50.870;3.524;2023-07-16T13:47:31;26.09;49.01
82001;SHT30;71522;50.870;3.524;2023-07-16T13:49:59;25.61;50.23
82001;SHT30;71522;50.870;3.524;2023-07-16T13:52:25;25.32;49.74
82001;SHT30;71522;50.870;3.524;2023-07-16T13:55:03;24.93;51.14
82001;SHT30;71522;50.870;3.524;2023-07-16T13:57:33;24.51;51.33
82001;SHT30;71522;50.870;3.524;2023-07-16T13:59:59;24.12;51.40
82001;SHT30;71522;50.870;3.524;2023-07-16T14:02:25;23.79;51.77
82001;SHT30;71522;50.870;3.524;2023-07-16T14:04:51;23.30;52.45
82001;SHT30;71522;50.870;3.524;2023-07-16T14:07:37;22.96;52.99
82001;SHT30;71522;50.870;3.524;2023-07-16T14:10:06;22.82;54.06
82001;SHT30;71522;50.870;3.524;2023-07-16T14:13:05;22.61;54.00
82001;SHT30;71522;50.870;3.524;2023-07-16T14:15:42;22.61;53.94
82001;SHT30;71522;50.870;3.524;2023-07-16T14:18:11;22.50;55.43
82001;SHT30;71522;50.870;3.524;2023-07-16T14:20:37;22.21;54.66
82001;SHT30;71522;50.870;3.524;2023-07-16T14:23:05;22.13;55.20
82001;SHT30;71522;50.870;3.524;2023-07-16T14:25:44;21.75;54.91
82001;SHT30;71522;50.870;3.524;2023-07-16T14:28:20;21.52;56.32
82001;SHT30;71522;50.870;3.524;2023-07-16T14:30:50;21.32;57.56
82001;SHT30;71522;50.870;3.524;2023-07-16T14:33:16;21.07;58.69
82001;SHT30;71522;50.870;3.524;2023-07-16T14:35:49;20.96;60.07
82001;SHT30;71522;50.870;3.524;2023-07-16T14:38:27;20.80;59.74
82001;SHT30;71522;50.870;3.524;2023-07-16T14:40:54;20.55;60.65
82001;SHT30;71522;50.870;3.524;2023-07-16T14:43:24;20.43;61.91
82001;SHT30;71522;50.870;3.524;2023-07-16T14:46:03;20.33;61.52
82001;SHT30;71522;50.870;3.524;2023-07-16T14:48:29;20.26;62.73
82001;SHT30;71522;50.870;3.524;2023-07-16T14:50:57;20.15;62.73
82001;SHT30;71522;50.870;3.524;2023-07-16T14:53:22;20.26;60.97
82001;SHT30;71522;50.870;3.524;2023-07-16T14:56:06;20.33;59.50
82001;SHT30;71522;50.870;3.524;2023-07-16T14:58:34;20.26;59.62
82001;SHT30;71522;50.870;3.524;2023-07-16T15:01:22;20.24;58.43
82001;SHT30;71522;50.870;3.524;2023-07-16T15:03:55;20.24;59.31
82001;SHT30;71522;50.870;3.524;2023-07-16T15:06:22;20.29;60.41
82001;SHT30;71522;50.870;3.524;2023-07-16T15:08:48;20.33;58.73
82001;SHT30;71522;50.870;3.524;2023-07-16T15:11:14;20.39;58.89
82001;SHT30;71522;50.870;3.524;2023-07-16T15:14:03;20.25;59.72
82001;SHT30;71522;50.870;3.524;2023-07-16T15:16:38;20.46;59.13
82001;SHT30;71522;50.870;3.524;2023-07-16T15:19:33;20.48;59.14
82001;SHT30;71522;50.870;3.524;2023-07-16T15:22:03;20.52;60.37
82001;SHT30;71522;50.870;3.524;2023-07-16T15:24:30;20.63;60.52
82001;SHT30;71522;50.870;3.524;2023-07-16T15:26:58;20.62;58.51
82001;SHT30;71522;50.870;3.524;2023-07-16T15:29:37;20.65;59.37
82001;SHT30;71522;50.870;3.524;2023-07-16T15:32:18;20.76;58.87
82001;SHT30;71522;50.870;3.524;2023-07-16T15:34:48;20.90;60.73
82001;SHT30;71522;50.870;3.524;2023-07-16T15:37:15;20.80;62.63
82001;SHT30;71522;50.870;3.524;2023-07-16T15:39:43;20.87;62.51
82001;SHT30;71522;50.870;3.524;2023-07-16T15:42:12;21.06;63.11
82001;SHT30;71522;50.870;3.524;2023-07-16T15:44:48;21.44;62.92
82001;SHT30;71522;50.870;3.524;2023-07-16T15:47:13;21.90;61.23
82001;SHT30;71522;50.870;3.524;2023-07-16T15:49:43;22.16;60.05
82001;SHT30;71522;50.870;3.524;2023-07-16T15:52:09;22.58;58.60